Time;durP1;ratioP1;P1;durP2;ratioP2;P2;SDS_P1;SDS_P2;PMS_P1;PMS_P2;Temp;Humidity;BMP_temperature;BMP_pressure;BME280_temperature;BME280_humidity;BME280_pressure;Samples;Min_cycle;Max_cycle;Signal;HPM_P1;HPM_P2
2020/12/13 00:01:51;;;;;;;7.95;3.35;;;;;;;5.28;74.19;99649.44;5013962;28;20037;-83
2020/12/13 00:04:16;;;;;;;10.73;3.47;;;;;;;5.02;74.99;99643.13;5030457;28;20030;-83
2020/12/13 00:06:41;;;;;;;13.23;3.75;;;;;;;5.05;75.91;99642.94;5031860;28;20497;-83
2020/12/13 00:09:07;;;;;;;16.70;4.53;;;;;;;5.24;75.79;99641.91;5033412;28;20029;-84
2020/12/13 00:11:35;;;;;;;13.20;4.47;;;;;;;5.08;75.13;99629.75;5033045;28;20108;-83
2020/12/13 00:14:01;;;;;;;7.32;3.08;;;;;;;5.12;76.06;99613.03;5075433;23;20126;-87
2020/12/13 00:16:26;;;;;;;17.42;3.80;;;;;;;5.27;75.06;99623.47;5035573;28;20079;-87
2020/12/13 00:18:51;;;;;;;11.23;3.85;;;;;;;5.17;76.29;99617.97;5052127;28;20139;-87
2020/12/13 00:21:17;;;;;;;11.63;3.80;;;;;;;5.15;75.41;99610.28;5053276;28;20060;-87
2020/12/13 00:23:43;;;;;;;14.88;3.25;;;;;;;5.31;76.50;99605.00;5052867;28;20113;-87
2020/12/13 00:26:09;;;;;;;11.00;4.13;;;;;;;5.16;75.64;99611.09;5053025;28;20383;-87
2020/12/13 00:28:38;;;;;;;14.82;3.60;;;;;;;5.33;75.66;99608.38;5053105;28;20017;-87
2020/12/13 00:31:04;;;;;;;11.15;3.17;;;;;;;5.43;76.42;99606.06;5053078;28;20051;-87
2020/12/13 00:33:30;;;;;;;8.65;3.22;;;;;;;5.53;76.49;99607.16;5052825;28;20029;-87
2020/12/13 00:35:56;;;;;;;7.97;3.22;;;;;;;5.54;76.33;99614.03;5053072;28;20025;-87
2020/12/13 00:38:21;;;;;;;11.10;2.75;;;;;;;5.61;76.01;99609.31;5051698;28;20344;-87
2020/12/13 00:40:51;;;;;;;8.40;3.47;;;;;;;5.66;76.06;99609.88;5052860;28;20078;-87
2020/12/13 00:43:20;;;;;;;10.95;3.70;;;;;;;5.57;75.13;99600.03;5052787;28;20021;-87
2020/12/13 00:45:45;;;;;;;15.10;3.35;;;;;;;5.66;76.13;99598.63;5052712;28;20479;-87
2020/12/13 00:48:11;;;;;;;11.60;3.53;;;;;;;5.52;74.65;99591.63;5052803;28;20029;-87
2020/12/13 00:50:38;;;;;;;14.13;3.78;;;;;;;5.35;75.24;99588.28;5052594;28;20029;-87
2020/12/13 00:53:05;;;;;;;11.38;4.40;;;;;;;4.92;76.97;99580.38;5034628;28;20067;-87
2020/12/13 00:55:30;;;;;;;18.63;4.15;;;;;;;5.23;77.67;99575.13;5052700;28;20386;-87
2020/12/13 00:57:55;;;;;;;14.30;3.20;;;;;;;5.48;75.55;99590.97;5051735;28;20017;-87
2020/12/13 01:00:21;;;;;;;11.20;4.68;;;;;;;5.43;76.09;99574.81;5052731;28;20412;-87
2020/12/13 01:02:47;;;;;;;15.02;4.03;;;;;;;5.28;76.74;99567.91;5052676;28;20020;-86
2020/12/13 01:05:13;;;;;;;11.32;4.18;;;;;;;5.41;75.78;99574.06;5052496;28;20024;-87
2020/12/13 01:07:38;;;;;;;7.47;3.40;;;;;;;5.51;76.01;99561.31;5052386;28;20372;-87
2020/12/13 01:10:04;;;;;;;13.18;3.58;;;;;;;5.57;76.43;99551.38;5052414;28;20116;-87
2020/12/13 01:12:31;;;;;;;9.20;3.40;;;;;;;5.67;76.06;99558.63;5052340;28;20040;-86
2020/12/13 01:14:56;;;;;;;12.05;3.72;;;;;;;5.71;75.59;99565.31;5063195;23;20049;-83
2020/12/13 01:17:22;;;;;;;9.52;3.08;;;;;;;5.72;75.26;99556.56;5052027;28;20478;-84
2020/12/13 01:19:47;;;;;;;8.00;3.13;;;;;;;5.77;75.81;99562.34;5052260;28;20025;-83
2020/12/13 01:22:13;;;;;;;14.45;4.13;;;;;;;5.59;74.51;99577.31;5051963;28;20364;-83
2020/12/13 01:24:39;;;;;;;12.68;3.75;;;;;;;5.58;75.90;99573.03;5052151;28;20175;-83
2020/12/13 01:27:04;;;;;;;9.70;3.97;;;;;;;5.45;75.82;99567.75;5052005;28;20534;-83
2020/12/13 01:29:29;;;;;;;10.77;3.30;;;;;;;5.62;76.40;99565.88;5052244;28;20078;-83
2020/12/13 01:31:55;;;;;;;7.07;3.40;;;;;;;5.63;75.66;99562.31;5052071;28;20494;-83
2020/12/13 01:34:20;;;;;;;9.05;3.30;;;;;;;5.69;75.61;99567.19;5052340;28;20043;-83
2020/12/13 01:36:45;;;;;;;15.18;3.65;;;;;;;5.72;75.63;99556.56;5051883;28;20039;-83
2020/12/13 01:39:11;;;;;;;9.60;4.05;;;;;;;5.79;74.83;99562.25;5051815;28;20025;-83
2020/12/13 01:41:36;;;;;;;8.65;3.10;;;;;;;5.82;75.57;99555.06;5051957;28;20017;-83
2020/12/13 01:44:04;;;;;;;12.35;2.97;;;;;;;5.85;76.25;99556.66;5034057;28;20043;-83
2020/12/13 01:46:30;;;;;;;13.18;3.13;;;;;;;5.70;75.37;99561.88;5051942;28;20021;-83
2020/12/13 01:49:03;;;;;;;10.98;3.53;;;;;;;5.48;75.80;99551.09;5051759;28;20078;-83
2020/12/13 01:52:05;;;;;;;10.05;3.33;;;;;;;5.56;76.42;99557.50;5051909;28;20086;-83
2020/12/13 01:54:32;;;;;;;11.73;2.92;;;;;;;5.70;75.25;99553.22;5052220;28;20029;-83
2020/12/13 01:57:01;;;;;;;11.35;2.92;;;;;;;5.70;76.35;99553.22;5051814;28;20021;-83
2020/12/13 01:59:29;;;;;;;10.65;3.38;;;;;;;5.84;76.01;99560.19;5051600;28;20494;-83
2020/12/13 02:02:01;;;;;;;9.75;3.10;;;;;;;5.90;75.97;99565.00;5051259;28;20044;-83
2020/12/13 02:04:28;;;;;;;8.00;2.60;;;;;;;5.94;75.78;99562.13;5051480;28;20021;-83
2020/12/13 02:06:54;;;;;;;9.00;3.30;;;;;;;5.99;75.95;99563.66;5051515;28;20326;-83
2020/12/13 02:09:24;;;;;;;7.90;3.20;;;;;;;5.84;75.85;99561.00;5053607;28;20024;-83
2020/12/13 02:11:51;;;;;;;14.52;3.30;;;;;;;5.86;75.36;99564.34;5055584;28;20025;-83
2020/12/13 02:14:17;;;;;;;10.70;3.28;;;;;;;5.81;76.84;99560.38;5055991;28;20033;-83
2020/12/13 02:16:48;;;;;;;12.52;3.50;;;;;;;5.97;75.87;99566.34;5055670;28;20028;-83
2020/12/13 02:19:14;;;;;;;11.73;2.90;;;;;;;6.08;76.24;99570.88;5055658;28;20074;-83
2020/12/13 02:21:45;;;;;;;9.38;2.78;;;;;;;6.12;75.90;99574.97;5055474;28;20075;-83
2020/12/13 02:24:12;;;;;;;7.38;2.42;;;;;;;6.20;75.55;99572.72;5055880;28;20033;-83
2020/12/13 02:26:44;;;;;;;9.35;2.55;;;;;;;6.26;75.89;99576.69;5055879;28;20025;-83
2020/12/13 02:29:10;;;;;;;7.45;2.63;;;;;;;6.28;75.65;99569.63;5055447;28;20437;-83
2020/12/13 02:31:36;;;;;;;10.73;3.00;;;;;;;6.25;75.64;99570.66;5055478;28;20050;-83
2020/12/13 02:34:02;;;;;;;12.80;2.97;;;;;;;6.32;75.42;99568.50;5055311;28;20064;-82
2020/12/13 02:36:29;;;;;;;12.77;3.72;;;;;;;6.34;75.66;99564.03;5055353;28;20036;-83
2020/12/13 02:38:54;;;;;;;15.13;3.55;;;;;;;6.23;75.41;99556.88;5055262;28;20052;-83
2020/12/13 02:41:20;;;;;;;21.55;4.38;;;;;;;6.39;76.12;99558.53;5055079;28;20438;-83
2020/12/13 02:43:45;;;;;;;11.13;3.00;;;;;;;6.43;75.12;99552.16;5055001;28;20029;-83
2020/12/13 02:46:10;;;;;;;12.43;3.30;;;;;;;6.49;75.87;99544.78;5055026;28;20048;-83
2020/12/13 02:48:36;;;;;;;10.90;3.25;;;;;;;6.54;75.51;99542.72;5055123;28;20025;-83
2020/12/13 02:51:01;;;;;;;10.13;3.22;;;;;;;6.52;75.37;99531.53;5055180;28;20049;-83
2020/12/13 02:53:26;;;;;;;9.30;4.00;;;;;;;6.60;75.24;99533.66;5054979;28;20052;-83
2020/12/13 02:55:51;;;;;;;7.32;2.75;;;;;;;6.62;75.13;99528.34;5054928;28;20021;-83
2020/12/13 02:58:17;;;;;;;10.10;2.42;;;;;;;6.65;75.12;99525.53;5054911;28;20028;-83
2020/12/13 03:00:42;;;;;;;9.73;2.75;;;;;;;6.65;75.70;99515.91;5054784;28;20489;-83
2020/12/13 03:03:08;;;;;;;9.60;3.17;;;;;;;6.57;75.20;99526.03;5054781;28;20539;-83
2020/12/13 03:05:33;;;;;;;11.75;4.28;;;;;;;6.47;74.83;99514.53;5037008;28;20525;-83
2020/12/13 03:07:58;;;;;;;11.65;3.10;;;;;;;6.53;75.19;99509.72;5054836;28;20637;-83
2020/12/13 03:10:24;;;;;;;9.93;3.40;;;;;;;6.62;75.28;99505.69;5054574;28;20467;-83
2020/12/13 03:12:49;;;;;;;9.18;2.67;;;;;;;6.70;75.37;99507.81;5054531;28;20536;-83
2020/12/13 03:15:15;;;;;;;9.23;3.17;;;;;;;6.75;75.20;99497.88;5054907;28;20450;-83
2020/12/13 03:17:41;;;;;;;8.68;2.28;;;;;;;6.78;75.25;99484.66;5054635;28;20051;-83
2020/12/13 03:20:07;;;;;;;13.63;3.55;;;;;;;6.83;75.66;99492.16;5053808;28;20017;-83
2020/12/13 03:22:32;;;;;;;9.48;2.80;;;;;;;6.84;74.78;99488.63;5054182;28;20036;-83
2020/12/13 03:24:58;;;;;;;11.65;2.25;;;;;;;6.88;75.22;99483.09;5054178;28;20021;-83
2020/12/13 03:27:26;;;;;;;7.40;2.67;;;;;;;6.78;75.10;99478.59;5054221;28;20050;-82
2020/12/13 03:29:52;;;;;;;7.65;2.30;;;;;;;6.90;75.49;99483.81;5054307;28;20024;-83
2020/12/13 03:32:18;;;;;;;8.73;2.40;;;;;;;6.93;74.79;99469.72;5054187;28;20032;-83
2020/12/13 03:34:44;;;;;;;8.95;3.53;;;;;;;6.94;74.56;99468.78;5054113;28;20024;-83
2020/12/13 03:37:09;;;;;;;12.88;2.67;;;;;;;6.95;74.43;99462.63;5054070;28;20029;-83
2020/12/13 03:39:35;;;;;;;10.13;2.47;;;;;;;6.95;74.32;99441.75;5054159;28;20032;-83
2020/12/13 03:42:00;;;;;;;10.30;2.38;;;;;;;7.02;74.42;99444.78;5054056;28;20509;-83
2020/12/13 03:44:25;;;;;;;6.22;2.25;;;;;;;7.05;74.69;99445.41;5053980;28;20387;-83
2020/12/13 03:46:51;;;;;;;12.65;2.50;;;;;;;7.05;74.41;99449.78;5054114;28;20032;-83
2020/12/13 03:49:16;;;;;;;6.72;2.88;;;;;;;7.03;74.21;99436.84;5059971;28;20475;-83
2020/12/13 03:51:42;;;;;;;10.38;2.70;;;;;;;7.08;74.55;99437.34;5053980;28;20379;-83
2020/12/13 03:54:07;;;;;;;7.13;2.60;;;;;;;7.15;74.82;99438.63;5053917;28;20048;-83
2020/12/13 03:56:32;;;;;;;10.60;2.80;;;;;;;7.13;74.28;99437.06;5053760;28;20024;-83
2020/12/13 03:58:58;;;;;;;7.05;2.67;;;;;;;7.15;74.61;99441.22;5053743;28;20025;-83
2020/12/13 04:01:23;;;;;;;9.35;2.75;;;;;;;7.08;74.20;99429.53;5053539;28;20375;-83
2020/12/13 04:03:49;;;;;;;12.80;2.70;;;;;;;7.03;74.08;99428.16;5053408;28;20027;-83
2020/12/13 04:06:14;;;;;;;10.30;2.47;;;;;;;6.97;74.32;99416.41;5053932;28;20017;-83
2020/12/13 04:08:39;;;;;;;6.78;2.70;;;;;;;7.09;74.67;99418.16;5053608;28;20025;-83
2020/12/13 04:11:05;;;;;;;15.73;2.60;;;;;;;7.11;73.99;99418.88;5053468;28;20677;-83
2020/12/13 04:13:30;;;;;;;8.23;2.55;;;;;;;7.20;74.45;99413.97;5054154;28;20025;-83
2020/12/13 04:15:55;;;;;;;11.82;2.42;;;;;;;7.23;74.13;99421.59;5053285;28;20032;-83
2020/12/13 04:18:21;;;;;;;8.35;2.75;;;;;;;7.20;73.94;99409.56;5053431;28;20071;-83
2020/12/13 04:20:46;;;;;;;10.85;3.63;;;;;;;7.28;74.21;99412.47;5053328;28;20051;-83
2020/12/13 04:23:11;;;;;;;9.77;2.28;;;;;;;7.30;74.11;99407.97;5053265;28;20017;-83
2020/12/13 04:25:37;;;;;;;14.48;2.88;;;;;;;7.28;73.42;99403.81;5053319;28;20027;-83
2020/12/13 04:28:02;;;;;;;10.23;2.53;;;;;;;7.45;73.16;99406.06;5053201;28;20105;-82
2020/12/13 04:30:28;;;;;;;19.60;3.72;;;;;;;7.38;73.99;99402.22;5053237;28;20108;-83
2020/12/13 04:32:53;;;;;;;7.80;2.20;;;;;;;7.43;74.17;99392.28;5052887;28;20082;-83
2020/12/13 04:35:19;;;;;;;9.68;2.45;;;;;;;7.40;73.92;99386.44;5052995;28;20017;-83
2020/12/13 04:37:44;;;;;;;9.68;2.60;;;;;;;7.44;73.65;99387.88;5053045;28;20057;-83
2020/12/13 04:40:09;;;;;;;9.50;2.13;;;;;;;7.52;74.44;99390.78;5052823;28;20021;-83
2020/12/13 04:42:36;;;;;;;8.82;2.33;;;;;;;7.53;74.16;99382.84;5052827;28;20040;-83
2020/12/13 04:45:06;;;;;;;8.50;2.50;;;;;;;7.49;74.04;99370.94;5052907;28;20028;-83
2020/12/13 04:47:33;;;;;;;15.38;2.58;;;;;;;7.51;74.74;99374.28;5052870;28;20017;-83
2020/12/13 04:50:03;;;;;;;6.50;2.03;;;;;;;7.55;74.92;99370.50;5052753;28;20032;-83
2020/12/13 04:52:29;;;;;;;4.95;2.38;;;;;;;7.52;74.41;99369.88;5052757;28;20025;-83
2020/12/13 04:54:54;;;;;;;5.78;2.13;;;;;;;7.56;75.36;99360.88;5052506;28;20032;-83
2020/12/13 04:57:20;;;;;;;10.75;2.17;;;;;;;7.59;74.86;99349.41;5052627;28;20048;-83
2020/12/13 04:59:47;;;;;;;9.20;2.38;;;;;;;7.57;75.11;99341.66;5052550;28;20071;-83
2020/12/13 05:02:13;;;;;;;10.10;2.25;;;;;;;7.66;74.30;99329.69;5052450;28;20028;-83
2020/12/13 05:04:39;;;;;;;8.13;2.22;;;;;;;7.69;74.15;99321.66;5052505;28;20529;-83
2020/12/13 05:07:04;;;;;;;13.88;3.05;;;;;;;7.59;74.49;99318.88;5052519;28;20028;-83
2020/12/13 05:09:30;;;;;;;10.32;2.85;;;;;;;7.64;74.54;99315.91;5052279;28;20029;-83
2020/12/13 05:11:55;;;;;;;10.27;1.73;;;;;;;7.73;73.53;99307.41;5052528;28;20033;-83
2020/12/13 05:14:21;;;;;;;11.25;2.15;;;;;;;7.70;73.78;99315.47;5062657;23;20048;-86
2020/12/13 05:16:46;;;;;;;10.00;1.95;;;;;;;7.81;73.76;99307.69;5052362;28;20033;-86
2020/12/13 05:19:12;;;;;;;22.10;2.70;;;;;;;7.84;74.22;99307.47;5052215;28;20104;-86
2020/12/13 05:21:38;;;;;;;12.40;2.30;;;;;;;7.89;73.83;99301.88;5052031;28;20025;-86
2020/12/13 05:24:06;;;;;;;18.60;3.22;;;;;;;7.92;73.93;99291.22;5051999;28;20053;-86
2020/12/13 05:26:32;;;;;;;9.68;1.92;;;;;;;7.87;73.79;99283.69;5052284;28;20078;-85
2020/12/13 05:29:00;;;;;;;6.80;1.80;;;;;;;8.01;73.86;99281.84;5052180;28;20032;-85
2020/12/13 05:31:28;;;;;;;14.55;2.70;;;;;;;8.16;73.66;99280.69;5052023;28;20029;-86
2020/12/13 05:36:20;;;;;;;7.22;1.77;;;;;;;8.06;73.93;99277.09;5051950;28;20474;-85
2020/12/13 05:38:46;;;;;;;13.75;2.00;;;;;;;7.99;74.17;99266.25;5051884;28;20032;-85
2020/12/13 05:41:15;;;;;;;10.93;2.20;;;;;;;7.91;74.36;99266.84;5051843;28;20029;-85
2020/12/13 05:43:52;;;;;;;9.73;2.10;;;;;;;8.05;74.68;99270.19;5051208;28;20463;-85
2020/12/13 05:46:44;;;;;;;11.90;2.50;;;;;;;7.92;74.55;99265.09;5051816;28;20104;-85
2020/12/13 05:51:54;;;;;;;14.40;2.08;;;;;;;8.20;73.63;99269.03;5051799;28;20127;-85
2020/12/13 05:54:25;;;;;;;18.40;2.80;;;;;;;8.16;73.43;99259.78;5051678;28;20490;-85
2020/12/13 05:56:55;;;;;;;;;;;;;;;8.16;74.42;99259.78;5052111;28;20029;-85
2020/12/13 05:59:21;;;;;;;14.68;2.42;;;;;;;8.27;73.38;99256.31;5051605;28;20344;-85
2020/12/13 06:01:48;;;;;;;13.48;1.90;;;;;;;8.23;73.78;99250.50;5051631;28;20029;-85
2020/12/13 06:04:15;;;;;;;12.02;2.25;;;;;;;8.40;73.60;99245.75;5051394;28;20032;-85
2020/12/13 06:06:44;;;;;;;8.65;1.85;;;;;;;8.31;73.40;99242.91;5051650;28;20103;-85
2020/12/13 06:09:12;;;;;;;14.30;2.20;;;;;;;8.26;73.35;99245.03;5051599;28;20017;-85
2020/12/13 06:11:49;;;;;;;15.60;2.40;;;;;;;8.29;73.42;99238.72;5051546;28;20029;-85
2020/12/13 06:14:22;;;;;;;13.82;2.75;;;;;;;8.34;73.36;99236.59;5062138;23;20414;-82
2020/12/13 06:16:49;;;;;;;13.05;2.35;;;;;;;8.23;73.74;99234.78;5051564;28;20033;-83
2020/12/13 06:19:18;;;;;;;13.00;2.40;;;;;;;8.24;73.80;99227.81;5051809;28;20053;-82
2020/12/13 06:21:45;;;;;;;11.80;1.95;;;;;;;7.94;74.52;99216.97;5033552;28;20386;-82
2020/12/13 06:24:11;;;;;;;8.70;2.10;;;;;;;8.16;74.19;99206.66;5051406;28;20052;-83
2020/12/13 06:26:36;;;;;;;11.13;2.50;;;;;;;8.10;74.75;99197.50;5051478;28;20506;-83
2020/12/13 06:29:03;;;;;;;15.73;2.33;;;;;;;7.96;75.70;99206.41;5051515;28;20025;-83
2020/12/13 06:31:30;;;;;;;18.35;2.20;;;;;;;7.94;76.19;99182.97;5051531;28;20021;-82
2020/12/13 06:33:56;;;;;;;13.23;2.08;;;;;;;8.06;76.29;99175.97;5051417;28;20017;-83
2020/12/13 06:36:24;;;;;;;16.67;2.20;;;;;;;8.06;76.81;99180.38;5051541;28;20056;-83
2020/12/13 06:38:52;;;;;;;13.02;2.05;;;;;;;7.97;76.76;99166.22;5051562;28;20040;-82
2020/12/13 06:41:20;;;;;;;14.20;2.28;;;;;;;8.14;76.54;99152.69;5053268;28;20033;-82
2020/12/13 06:44:00;;;;;;;7.50;1.77;;;;;;;7.89;77.57;99151.13;5065365;28;20020;-81
2020/12/13 06:46:27;;;;;;;13.88;1.98;;;;;;;8.04;77.11;99141.28;5066345;28;20032;-82
2020/12/13 06:48:54;;;;;;;16.60;2.40;;;;;;;8.20;77.55;99155.78;5059999;28;20048;-82
2020/12/13 06:51:27;;;;;;;7.22;2.30;;;;;;;8.18;77.26;99145.44;5058029;28;20041;-82
2020/12/13 06:53:53;;;;;;;14.30;2.92;;;;;;;8.05;78.57;99155.19;5057446;28;20029;-82
2020/12/13 06:56:20;;;;;;;12.27;1.95;;;;;;;8.06;78.33;99138.56;5057800;28;20118;-82
2020/12/13 06:58:57;;;;;;;10.00;2.00;;;;;;;8.27;77.63;99138.63;5057768;28;20074;-82
2020/12/13 07:01:34;;;;;;;8.25;1.88;;;;;;;8.24;77.58;99128.44;5060585;28;20112;-82
2020/12/13 07:04:24;;;;;;;5.32;1.38;;;;;;;8.39;78.15;99137.66;5060463;28;20025;-82
2020/12/13 07:07:19;;;;;;;6.78;1.88;;;;;;;8.40;77.67;99135.91;5056341;28;20104;-82
2020/12/13 07:09:41;;;;;;;9.68;2.03;;;;;;;8.28;77.66;99127.25;5056394;28;20045;-81
2020/12/13 07:12:09;;;;;;;8.05;1.83;;;;;;;8.43;77.15;99126.06;5056049;28;20025;-81
2020/12/13 07:14:36;;;;;;;14.95;4.00;;;;;;;8.04;79.51;99124.78;5058101;28;20029;-81
2020/12/13 07:17:12;;;;;;;7.75;1.90;;;;;;;8.31;78.86;99132.22;5056473;28;20025;-82
2020/12/13 07:19:40;;;;;;;12.23;2.28;;;;;;;8.21;79.08;99120.81;5056822;28;20044;-82
2020/12/13 07:22:11;;;;;;;3.92;1.42;;;;;;;8.37;79.36;99121.25;5056964;28;20040;-82
2020/12/13 07:24:37;;;;;;;6.43;1.50;;;;;;;8.46;78.65;99109.28;5059012;28;20029;-81
2020/12/13 07:27:05;;;;;;;7.32;1.50;;;;;;;8.33;79.54;99099.78;5059333;28;20040;-81
2020/12/13 07:29:33;;;;;;;6.97;1.85;;;;;;;8.28;80.19;99107.16;5054872;28;20171;-82
2020/12/13 07:32:03;;;;;;;7.00;1.83;;;;;;;8.64;78.65;99099.13;5054251;28;20025;-81
2020/12/13 07:34:28;;;;;;;4.05;1.42;;;;;;;8.65;78.18;99088.53;5054228;28;20044;-82
2020/12/13 07:36:54;;;;;;;3.50;1.58;;;;;;;8.67;78.65;99091.88;5054205;28;20423;-82
2020/12/13 07:39:22;;;;;;;5.72;1.35;;;;;;;8.86;78.26;99099.03;5054247;28;20063;-82
2020/12/13 07:41:48;;;;;;;2.92;1.25;;;;;;;8.97;77.53;99089.50;5054050;28;20378;-82
2020/12/13 07:44:15;;;;;;;4.57;1.02;;;;;;;8.74;78.90;99086.94;5054289;28;20035;-83
2020/12/13 07:46:42;;;;;;;4.50;1.40;;;;;;;8.72;79.50;99078.41;5054141;28;20036;-83
2020/12/13 07:49:07;;;;;;;7.35;1.30;;;;;;;8.88;79.07;99080.59;5054121;28;20082;-83
2020/12/13 07:51:35;;;;;;;3.95;1.23;;;;;;;9.02;78.42;99082.91;5054091;28;20021;-82
2020/12/13 07:54:14;;;;;;;6.97;1.00;;;;;;;8.89;79.16;99084.88;5053747;28;20025;-82
2020/12/13 07:56:41;;;;;;;7.95;1.63;;;;;;;8.96;78.94;99078.16;5053934;28;20086;-82
2020/12/13 07:59:10;;;;;;;5.78;0.93;;;;;;;9.02;79.30;99074.22;5053963;28;20025;-82
2020/12/13 08:01:36;;;;;;;2.03;0.73;;;;;;;8.84;79.95;99068.72;5053815;28;20093;-81
2020/12/13 08:04:02;;;;;;;5.68;0.65;;;;;;;9.23;78.62;99071.63;5053465;28;20135;-82
2020/12/13 08:06:27;;;;;;;4.95;0.70;;;;;;;9.21;78.81;99065.69;5035253;28;20025;-82
2020/12/13 08:08:53;;;;;;;2.17;1.00;;;;;;;9.29;78.29;99071.09;5052715;28;20087;-81
2020/12/13 08:11:18;;;;;;;4.90;0.63;;;;;;;9.39;77.41;99055.44;5035638;28;20489;-81
2020/12/13 08:13:46;;;;;;;5.18;0.82;;;;;;;9.49;78.14;99051.06;5053968;28;20059;-81
2020/12/13 08:16:13;;;;;;;3.78;0.90;;;;;;;9.24;78.86;99057.53;5053190;28;20021;-81
2020/12/13 08:18:44;;;;;;;4.18;0.68;;;;;;;9.18;79.24;99063.31;5053374;28;20025;-82
2020/12/13 08:21:11;;;;;;;4.43;0.90;;;;;;;9.24;78.87;99070.63;5052692;28;20051;-81
2020/12/13 08:23:38;;;;;;;5.10;0.75;;;;;;;9.24;79.25;99074.13;5050031;28;20167;-81
2020/12/13 08:26:05;;;;;;;3.67;0.55;;;;;;;9.53;78.32;99058.53;5046697;28;20020;-81
2020/12/13 08:28:32;;;;;;;4.70;0.93;;;;;;;9.31;79.07;99061.31;5045272;28;20487;-81
2020/12/13 08:31:00;;;;;;;1.58;0.35;;;;;;;9.55;78.60;99055.78;5032945;28;20021;-81
2020/12/13 08:33:25;;;;;;;3.40;0.50;;;;;;;9.55;78.90;99050.53;5029608;28;20504;-81
2020/12/13 08:35:51;;;;;;;2.38;0.30;;;;;;;9.47;78.80;99048.56;5034167;28;20064;-81
2020/12/13 08:38:16;;;;;;;2.72;0.50;;;;;;;9.38;79.34;99038.91;5044829;28;20025;-81
2020/12/13 08:40:44;;;;;;;3.63;0.47;;;;;;;9.36;79.66;99040.81;5042434;28;20021;-81
2020/12/13 08:43:12;;;;;;;0.55;0.20;;;;;;;9.70;78.39;99035.31;5052848;28;20029;-81
2020/12/13 08:45:37;;;;;;;0.70;0.20;;;;;;;9.69;78.11;99041.50;5038190;28;20031;-81
2020/12/13 08:48:05;;;;;;;1.60;0.40;;;;;;;9.73;78.69;99033.25;5032734;28;20044;-81
2020/12/13 08:50:40;;;;;;;3.63;0.50;;;;;;;9.68;78.81;99026.75;5031639;28;20403;-81
2020/12/13 08:53:35;;;;;;;1.08;0.20;;;;;;;9.38;79.17;99027.56;5033831;28;20029;-81
2020/12/13 08:56:03;;;;;;;1.90;0.47;;;;;;;9.60;78.48;99016.94;5036986;28;20041;-82
2020/12/13 08:58:28;;;;;;;2.00;0.40;;;;;;;9.64;78.57;99020.13;5052753;28;20051;-81
2020/12/13 09:01:07;;;;;;;0.55;0.20;;;;;;;9.58;79.23;99018.00;5043607;28;20476;-81
2020/12/13 09:03:32;;;;;;;1.05;0.40;;;;;;;9.70;78.92;99027.44;5050222;28;20067;-82
2020/12/13 09:05:58;;;;;;;0.30;0.30;;;;;;;9.75;78.32;99014.75;5050805;28;20175;-81
2020/12/13 09:08:23;;;;;;;0.47;0.10;;;;;;;9.69;78.72;99012.66;5045939;28;20061;-81
2020/12/13 09:10:51;;;;;;;0.77;0.10;;;;;;;9.83;78.43;98999.19;5052096;28;20543;-81
2020/12/13 09:13:20;;;;;;;1.13;0.20;;;;;;;9.64;78.67;98986.88;5046179;28;20051;-81
2020/12/13 09:15:45;;;;;;;2.63;0.30;;;;;;;9.92;78.17;98995.78;5050827;28;20033;-81
2020/12/13 09:18:11;;;;;;;1.42;0.20;;;;;;;9.70;78.85;98988.94;5041481;28;20029;-81
2020/12/13 09:20:37;;;;;;;0.80;0.20;;;;;;;9.78;78.52;98988.28;5034363;28;20026;-81
2020/12/13 09:23:07;;;;;;;0.45;0.30;;;;;;;9.95;78.09;98981.56;5047269;28;20542;-81
2020/12/13 09:25:53;;;;;;;1.52;0.35;;;;;;;10.12;77.65;98990.56;5045775;28;20449;-81
2020/12/13 09:28:18;;;;;;;0.95;0.47;;;;;;;9.88;78.44;98983.91;5036230;28;20506;-81
2020/12/13 09:30:44;;;;;;;2.45;0.40;;;;;;;9.71;79.49;98987.16;5045725;28;20052;-81
2020/12/13 09:33:11;;;;;;;1.45;0.40;;;;;;;9.82;78.59;98987.06;5043684;28;20052;-81
2020/12/13 09:35:37;;;;;;;1.85;0.40;;;;;;;9.95;78.84;98989.41;5041487;28;20032;-81
2020/12/13 09:38:05;;;;;;;1.52;0.30;;;;;;;10.04;78.59;98993.03;5049542;28;20037;-81
2020/12/13 09:40:32;;;;;;;3.13;0.47;;;;;;;10.13;78.21;98992.22;5033990;28;20043;-81
2020/12/13 09:42:58;;;;;;;2.53;0.50;;;;;;;10.03;78.75;98986.13;5048619;28;20055;-81
2020/12/13 09:45:23;;;;;;;0.38;0.20;;;;;;;9.91;79.00;98977.53;5051533;28;20025;-81
2020/12/13 09:47:49;;;;;;;1.90;0.30;;;;;;;9.90;79.09;98978.53;5033735;28;20030;-82
2020/12/13 09:50:17;;;;;;;0.73;0.30;;;;;;;10.02;77.97;98979.25;5031717;28;20147;-81
2020/12/13 09:52:43;;;;;;;0.95;0.38;;;;;;;9.79;79.20;98983.88;5044896;28;20021;-81
2020/12/13 09:55:08;;;;;;;1.00;0.38;;;;;;;10.02;79.09;98974.81;5046918;28;20495;-82
2020/12/13 09:57:34;;;;;;;0.30;0.20;;;;;;;10.09;78.37;98964.59;5031673;28;20482;-82
2020/12/13 09:59:59;;;;;;;0.25;0.20;;;;;;;10.26;77.79;98950.81;5033221;28;20025;-81
2020/12/13 10:02:24;;;;;;;0.40;0.25;;;;;;;9.97;79.24;98944.72;5038803;28;20065;-81
2020/12/13 10:04:50;;;;;;;0.90;0.30;;;;;;;9.86;79.44;98927.31;5044251;28;20104;-81
2020/12/13 10:09:41;;;;;;;1.17;0.20;;;;;;;10.05;79.38;98922.09;5033049;28;20037;-81
2020/12/13 10:12:06;;;;;;;0.28;0.28;;;;;;;10.18;78.93;98919.19;5039072;28;20066;-81
2020/12/13 10:14:32;;;;;;;0.10;0.10;;;;;;;9.96;79.79;98909.00;5045580;28;20360;-81
2020/12/13 10:16:57;;;;;;;0.45;0.25;;;;;;;10.05;79.35;98902.91;5046220;28;20044;-81
2020/12/13 10:19:23;;;;;;;1.08;0.30;;;;;;;10.37;78.31;98894.78;5033432;28;20468;-81
2020/12/13 10:21:49;;;;;;;0.63;0.20;;;;;;;10.26;78.74;98885.22;5035828;28;20026;-81
2020/12/13 10:24:14;;;;;;;0.60;0.20;;;;;;;10.28;78.96;98878.03;5031185;28;20037;-81
2020/12/13 10:26:41;;;;;;;1.42;0.40;;;;;;;10.43;78.63;98883.72;5039584;28;20033;-81
2020/12/13 10:29:07;;;;;;;0.40;0.20;;;;;;;10.52;78.70;98893.41;5023332;28;20490;-81
2020/12/13 10:31:38;;;;;;;0.40;0.30;;;;;;;10.29;79.25;98887.59;5051965;28;20104;-81
2020/12/13 10:34:06;;;;;;;0.73;0.40;;;;;;;10.51;78.39;98890.91;5050695;28;20368;-81
2020/12/13 10:36:35;;;;;;;0.22;0.22;;;;;;;10.30;78.81;98876.13;5052094;28;20017;-81
2020/12/13 10:39:03;;;;;;;1.05;0.50;;;;;;;10.41;78.88;98900.59;5048643;28;20025;-81
2020/12/13 10:41:29;;;;;;;0.80;0.40;;;;;;;10.54;78.63;98901.09;5052855;28;20111;-81
2020/12/13 10:43:54;;;;;;;1.45;0.38;;;;;;;10.45;78.62;98896.72;5054353;28;20540;-81
2020/12/13 10:46:19;;;;;;;1.13;0.25;;;;;;;10.64;78.68;98904.56;5054364;28;20025;-81
2020/12/13 10:48:45;;;;;;;1.30;0.40;;;;;;;10.59;78.75;98885.78;5053745;28;20029;-81
2020/12/13 10:51:10;;;;;;;0.35;0.35;;;;;;;10.58;78.75;98875.41;5044112;28;20029;-81
2020/12/13 10:53:36;;;;;;;1.67;0.40;;;;;;;10.52;78.90;98872.41;5041830;28;20030;-82
2020/12/13 10:56:04;;;;;;;2.30;0.35;;;;;;;10.64;79.26;98861.72;5045846;28;20033;-82
2020/12/13 10:58:30;;;;;;;0.95;0.45;;;;;;;10.63;79.44;98852.19;5042017;28;20041;-80
2020/12/13 11:00:56;;;;;;;0.98;0.50;;;;;;;10.77;78.77;98856.16;5054474;28;20025;-82
2020/12/13 11:03:22;;;;;;;0.50;0.40;;;;;;;10.79;79.16;98854.22;5049840;28;20029;-82
2020/12/13 11:05:47;;;;;;;1.25;0.50;;;;;;;10.70;79.48;98846.25;5041684;28;20372;-81
2020/12/13 11:08:14;;;;;;;2.63;0.90;;;;;;;10.58;80.08;98834.22;5053206;28;20549;-81
2020/12/13 11:10:44;;;;;;;4.18;0.70;;;;;;;10.76;79.82;98828.25;5053804;28;20063;-81
2020/12/13 11:13:09;;;;;;;7.82;0.88;;;;;;;10.91;79.39;98818.94;5053311;28;20043;-81
2020/12/13 11:15:35;;;;;;;6.07;1.30;;;;;;;11.08;78.63;98802.41;5030186;28;20029;-81
2020/12/13 11:18:00;;;;;;;2.78;0.88;;;;;;;11.14;78.65;98789.63;5053542;28;20025;-81
2020/12/13 11:20:25;;;;;;;8.77;1.05;;;;;;;11.11;78.78;98788.94;5054375;28;20029;-81
2020/12/13 11:22:51;;;;;;;3.10;1.30;;;;;;;11.26;78.69;98780.59;5054058;28;20029;-81
2020/12/13 11:25:16;;;;;;;7.75;0.85;;;;;;;11.24;78.79;98761.53;5052984;28;20498;-82
2020/12/13 11:27:42;;;;;;;8.57;1.00;;;;;;;11.09;79.70;98762.00;5052112;28;20059;-82
2020/12/13 11:30:10;;;;;;;4.47;1.02;;;;;;;11.30;78.98;98753.84;5053154;28;20107;-82
2020/12/13 11:32:35;;;;;;;10.57;2.67;;;;;;;11.30;79.34;98745.16;5052534;28;20459;-82
2020/12/13 11:35:00;;;;;;;4.05;1.40;;;;;;;11.07;80.14;98742.94;5035804;28;20132;-82
2020/12/13 11:37:26;;;;;;;7.63;1.90;;;;;;;11.03;80.70;98719.75;5053054;28;20025;-81
2020/12/13 11:39:52;;;;;;;4.00;1.05;;;;;;;11.32;79.37;98722.19;5044432;28;20035;-82
2020/12/13 11:42:19;;;;;;;4.28;1.23;;;;;;;11.07;81.04;98724.56;5036011;28;20379;-82
2020/12/13 11:44:44;;;;;;;3.63;0.93;;;;;;;11.54;79.53;98717.44;5035061;28;20032;-82